createdAt,value
2023-02-01T06:49:42.228Z,4.30
2023-02-01T06:52:43.924Z,4.50
2023-02-01T06:56:02.524Z,4.80
2023-02-01T06:59:05.761Z,5.00
2023-02-01T07:02:12.496Z,5.10
2023-02-01T07:05:14.540Z,5.20
2023-02-01T07:08:16.395Z,5.20
2023-02-01T07:11:19.961Z,5.30
2023-02-01T07:14:21.913Z,5.30
2023-02-01T07:17:24.746Z,5.30
2023-02-01T07:20:27.083Z,5.20
2023-02-01T07:23:29.309Z,5.30
2023-02-01T07:26:31.738Z,5.30
2023-02-01T07:29:33.962Z,5.30
2023-02-01T07:32:35.875Z,5.30
2023-02-01T07:35:37.759Z,5.50
2023-02-01T07:38:39.942Z,5.40
2023-02-01T07:41:42.046Z,5.50
2023-02-01T07:44:43.950Z,5.40
2023-02-01T07:47:45.809Z,5.40
2023-02-01T07:50:47.792Z,5.30
2023-02-01T07:53:49.930Z,5.30
2023-02-01T07:56:51.802Z,5.30
2023-02-01T08:00:13.684Z,5.10
2023-02-01T08:03:17.387Z,5.30
2023-02-01T08:06:21.393Z,5.30
2023-02-01T08:09:23.172Z,5.20
2023-02-01T08:12:26.449Z,5.30
2023-02-01T08:15:29.442Z,5.40
2023-02-01T08:18:31.679Z,5.50
2023-02-01T08:21:40.605Z,5.60
2023-02-01T08:24:42.755Z,5.80
2023-02-01T08:27:44.970Z,6.00
2023-02-01T08:30:46.793Z,6.10
2023-02-01T08:33:53.424Z,6.10
2023-02-01T08:37:02.361Z,6.40
2023-02-01T08:40:05.530Z,6.40
2023-02-01T08:43:07.415Z,6.30
2023-02-01T08:46:10.140Z,6.20
2023-02-01T08:49:11.868Z,6.20
2023-02-01T08:52:16.206Z,5.90
2023-02-01T08:55:18.976Z,5.60
2023-02-01T08:58:22.652Z,5.60
2023-02-01T09:01:26.174Z,5.60
2023-02-01T09:04:30.942Z,5.60
2023-02-01T09:07:33.794Z,5.80
2023-02-01T09:10:43.999Z,5.90
2023-02-01T09:13:46.889Z,5.90
2023-02-01T09:16:48.724Z,6.40
2023-02-01T09:19:50.906Z,7.00
2023-02-01T09:22:54.293Z,7.50
2023-02-01T09:26:00.997Z,7.90
2023-02-01T09:29:04.447Z,8.60
2023-02-01T09:32:07.565Z,9.60
2023-02-01T09:35:09.693Z,9.50
2023-02-01T09:38:11.612Z,8.10
2023-02-01T09:41:40.821Z,7.60
2023-02-01T09:45:18.466Z,7.40
2023-02-01T09:48:25.799Z,7.30
2023-02-01T09:51:33.509Z,8.20
2023-02-01T09:54:47.149Z,8.60
2023-02-01T09:57:59.477Z,9.30
2023-02-01T10:01:04.038Z,9.50
2023-02-01T10:04:13.214Z,9.30
2023-02-01T10:07:28.266Z,9.60
2023-02-01T10:10:41.741Z,9.00
2023-02-01T10:14:12.525Z,8.40
2023-02-01T10:17:57.978Z,7.80
2023-02-01T10:21:27.993Z,7.40
2023-02-01T10:25:08.471Z,7.00
2023-02-01T10:28:19.370Z,6.80
2023-02-01T10:31:26.243Z,6.80
2023-02-01T10:34:32.642Z,7.00
2023-02-01T10:37:37.080Z,7.50
2023-02-01T10:40:40.662Z,7.50
2023-02-01T10:43:44.517Z,7.50
2023-02-01T10:46:46.457Z,7.40
2023-02-01T10:50:16.663Z,7.90
2023-02-01T10:53:25.566Z,8.20
2023-02-01T10:56:29.700Z,8.20
2023-02-01T10:59:34.552Z,7.80
2023-02-01T11:02:37.917Z,7.60
2023-02-01T11:05:48.905Z,7.30
2023-02-01T11:08:55.350Z,7.90
2023-02-01T11:12:00.079Z,8.10
2023-02-01T11:15:24.309Z,7.80
2023-02-01T11:18:30.071Z,7.50
2023-02-01T11:21:32.901Z,7.40
2023-02-01T11:24:39.324Z,7.80
2023-02-01T11:27:53.029Z,7.90
2023-02-01T11:30:57.995Z,7.80
2023-02-01T11:34:10.136Z,9.10
2023-02-01T11:37:35.752Z,9.30
2023-02-01T11:40:39.700Z,8.80
2023-02-01T11:43:59.527Z,7.90
2023-02-01T11:47:24.781Z,7.80
2023-02-01T11:50:49.825Z,7.50
2023-02-01T11:54:16.139Z,7.50
2023-02-01T11:57:38.473Z,7.50
2023-02-01T12:01:08.572Z,7.70
2023-02-01T12:04:41.699Z,7.60
2023-02-01T12:08:08.107Z,7.60
2023-02-01T12:11:30.818Z,7.70
2023-02-01T12:14:47.662Z,7.30
2023-02-01T12:18:04.481Z,7.20
2023-02-01T12:21:42.310Z,6.80
2023-02-01T12:25:23.987Z,6.40
2023-02-01T12:28:56.343Z,6.70
2023-02-01T12:32:21.870Z,6.80
2023-02-01T12:35:51.187Z,6.80
2023-02-01T12:39:15.841Z,6.50
2023-02-01T12:42:44.774Z,6.50
2023-02-01T12:45:53.257Z,6.30
2023-02-01T12:49:02.439Z,6.20
2023-02-01T12:52:11.757Z,6.30
2023-02-01T12:55:39.421Z,6.50
2023-02-01T12:58:51.174Z,6.90
2023-02-01T13:02:00.178Z,6.80
2023-02-01T13:05:25.077Z,7.00
2023-02-01T13:08:39.594Z,6.90
2023-02-01T13:11:46.049Z,6.70
2023-02-01T13:14:54.307Z,6.70
2023-02-01T13:18:01.291Z,6.70
2023-02-01T13:21:08.984Z,6.80
2023-02-01T13:24:34.400Z,6.70
2023-02-01T13:27:36.115Z,6.50
2023-02-01T13:30:53.221Z,6.30
2023-02-01T13:34:34.932Z,6.20
2023-02-01T13:38:00.852Z,6.30
2023-02-01T13:41:27.890Z,6.40
2023-02-01T13:44:35.111Z,6.40
2023-02-01T13:47:41.886Z,6.40
2023-02-01T13:50:43.595Z,6.60
2023-02-01T13:53:48.873Z,6.60
2023-02-01T13:56:50.782Z,6.70
2023-02-01T13:59:53.835Z,6.80
2023-02-01T14:03:09.752Z,6.80
2023-02-01T14:06:31.405Z,6.70
2023-02-01T14:09:37.995Z,6.60
2023-02-01T14:12:49.484Z,6.40
2023-02-01T14:16:07.294Z,6.20
2023-02-01T14:19:30.007Z,6.30
2023-02-01T14:22:35.179Z,6.40
2023-02-01T14:25:36.758Z,6.40
2023-02-01T14:29:00.600Z,6.50
2023-02-01T14:32:20.802Z,6.40
2023-02-01T14:35:26.982Z,6.30
2023-02-01T14:38:32.329Z,6.40
2023-02-01T14:41:35.638Z,6.30
2023-02-01T14:44:38.076Z,6.40
2023-02-01T14:47:40.550Z,6.30
2023-02-01T14:50:48.492Z,6.30
2023-02-01T14:53:52.115Z,6.40
2023-02-01T14:56:55.238Z,6.50
2023-02-01T15:00:17.432Z,6.70
2023-02-01T15:03:45.422Z,6.90
2023-02-01T15:06:53.252Z,6.90
2023-02-01T15:09:58.949Z,6.70
2023-02-01T15:13:00.958Z,6.60
2023-02-01T15:16:14.103Z,6.60
2023-02-01T15:19:15.941Z,6.50
2023-02-01T15:22:20.376Z,6.30
2023-02-01T15:25:26.650Z,6.20
2023-02-01T15:28:28.503Z,6.10
2023-02-01T15:31:48.849Z,6.10
2023-02-01T15:34:51.230Z,6.00
2023-02-01T15:37:53.093Z,5.90
2023-02-01T15:41:15.456Z,5.90
2023-02-01T15:44:28.668Z,5.90
2023-02-01T15:47:32.770Z,5.80
2023-02-01T15:50:34.580Z,5.80
2023-02-01T15:53:36.315Z,5.70
2023-02-01T15:56:40.616Z,5.80
2023-02-01T15:59:45.410Z,5.80
2023-02-01T16:03:05.617Z,5.80
2023-02-01T16:06:11.204Z,6.00
2023-02-01T16:09:15.642Z,6.10
2023-02-01T16:12:29.331Z,6.10
2023-02-01T16:15:32.035Z,6.10
2023-02-01T16:18:33.909Z,6.00
2023-02-01T16:21:35.854Z,6.00
2023-02-01T16:24:37.606Z,6.00
2023-02-01T16:27:39.314Z,6.00
2023-02-01T16:30:41.067Z,5.90
2023-02-01T16:33:42.777Z,5.90
2023-02-01T16:36:52.534Z,5.80
2023-02-01T16:39:54.259Z,5.80
2023-02-01T16:42:56.423Z,5.80
2023-02-01T16:46:03.741Z,5.80
2023-02-01T16:49:06.464Z,5.90
2023-02-01T16:52:15.544Z,5.90
2023-02-01T16:55:19.637Z,6.00
2023-02-01T16:58:22.467Z,5.90
